Bol'Shaja Murta, Russia
Current Conditions -  °F | °C
As of 7:30 AM on Tuesday 21 Oct 2014 (Local Time) from UNKL Reporting Station
Broken Clouds Broken Clouds  
Wind Chill: 32°   Ceiling: 8300
Heat Index: 37°   Visibility: 6mi
Dew Point: 32°   Wind: 7mph
Humidity: 81%   Direction: 180°S
Pressure: 29.56"   Gusts: 13mph
Location:  56.9°N, 93.13°E
Report Text: UNKL 210030Z 18003G06MPS 9999 SCT033CB BKN083 03/00 Q1001 NOSIGRMK QFE725 29////65
Loading
Personal Weather Stations






























Interactive Weather Map
Tropical Storm Tracking
New forecast layout! Learn more

10-Day Weather Forecast

Advertisements
Track Severe Weather on mobile